createdAt,value
2024-01-24T00:01:06.958Z,13.50
2024-01-24T00:03:49.243Z,12.70
2024-01-24T00:06:17.452Z,9.60
2024-01-24T00:08:45.770Z,12.10
2024-01-24T00:11:13.911Z,12.70
2024-01-24T00:13:41.958Z,10.60
2024-01-24T00:16:10.172Z,11.70
2024-01-24T00:18:38.429Z,9.30
2024-01-24T00:21:06.927Z,12.20
2024-01-24T00:23:35.085Z,10.00
2024-01-24T00:26:03.206Z,14.10
2024-01-24T00:28:31.335Z,13.20
2024-01-24T00:30:59.409Z,11.90
2024-01-24T00:33:30.583Z,17.50
2024-01-24T00:35:58.861Z,15.20
2024-01-24T00:38:26.983Z,10.60
2024-01-24T00:40:55.339Z,12.60
2024-01-24T00:43:24.102Z,13.80
2024-01-24T00:45:52.264Z,10.00
2024-01-24T00:48:20.511Z,11.60
2024-01-24T00:50:48.629Z,16.80
2024-01-24T00:53:21.071Z,15.30
2024-01-24T00:55:49.306Z,10.20
2024-01-24T00:58:19.040Z,13.80
2024-01-24T01:00:47.361Z,14.80
2024-01-24T01:03:16.000Z,17.40
2024-01-24T01:05:44.754Z,16.70
2024-01-24T01:08:12.965Z,17.90
2024-01-24T01:10:41.059Z,12.70
2024-01-24T01:13:09.137Z,12.90
2024-01-24T01:15:37.197Z,14.80
2024-01-24T01:18:05.868Z,14.40
2024-01-24T01:20:33.933Z,8.80
2024-01-24T01:23:03.809Z,14.30
2024-01-24T01:25:31.907Z,14.90
2024-01-24T01:28:00.142Z,13.70
2024-01-24T01:30:28.363Z,10.90
2024-01-24T01:32:56.879Z,10.70
2024-01-24T01:35:25.096Z,13.30
2024-01-24T01:37:53.174Z,11.00
2024-01-24T01:40:21.489Z,10.70
2024-01-24T01:42:49.746Z,12.00
2024-01-24T01:45:18.009Z,9.50
2024-01-24T01:47:49.187Z,9.60
2024-01-24T01:50:18.598Z,8.30
2024-01-24T01:52:47.626Z,12.20
2024-01-24T01:55:16.617Z,12.50
2024-01-24T01:57:45.654Z,11.00
2024-01-24T02:00:22.070Z,9.90
2024-01-24T02:02:51.659Z,11.50
2024-01-24T02:05:20.628Z,8.70
2024-01-24T02:07:49.006Z,10.00
2024-01-24T02:10:17.245Z,9.10
2024-01-24T02:12:45.389Z,13.50
2024-01-24T02:15:13.672Z,9.10
2024-01-24T02:17:41.869Z,12.00
2024-01-24T02:20:11.926Z,8.80
2024-01-24T02:22:39.970Z,8.70
2024-01-24T02:25:08.699Z,5.90
2024-01-24T02:27:37.086Z,6.30
2024-01-24T02:30:06.270Z,5.80
2024-01-24T02:32:34.542Z,8.20
2024-01-24T02:35:02.671Z,6.50
2024-01-24T02:37:31.533Z,7.30
2024-01-24T02:39:59.896Z,5.60
2024-01-24T02:42:28.050Z,3.90
2024-01-24T02:44:56.182Z,7.00
2024-01-24T02:47:24.399Z,4.30
2024-01-24T02:49:52.449Z,4.20
2024-01-24T02:52:20.572Z,4.70
2024-01-24T02:54:48.743Z,5.50
2024-01-24T02:57:17.058Z,5.30
2024-01-24T02:59:45.226Z,3.70
2024-01-24T03:02:13.381Z,5.60
2024-01-24T03:04:41.600Z,4.80
2024-01-24T03:07:09.940Z,4.60
2024-01-24T03:09:38.191Z,3.40
2024-01-24T03:12:06.518Z,2.30
2024-01-24T03:14:34.636Z,2.60
2024-01-24T03:17:02.739Z,3.60
2024-01-24T03:19:31.043Z,3.80
2024-01-24T03:21:59.611Z,2.60
2024-01-24T03:24:27.937Z,4.20
2024-01-24T03:26:56.038Z,2.90
2024-01-24T03:29:24.070Z,3.20
2024-01-24T03:31:52.104Z,2.70
2024-01-24T03:34:20.479Z,4.00
2024-01-24T03:36:48.826Z,4.50
2024-01-24T03:39:17.083Z,2.50
2024-01-24T03:41:45.673Z,3.20
2024-01-24T03:44:13.906Z,3.60
2024-01-24T03:46:42.130Z,1.90
2024-01-24T03:49:10.326Z,3.30
2024-01-24T03:51:38.543Z,2.20
2024-01-24T03:54:06.812Z,1.90
2024-01-24T03:56:34.874Z,3.50
2024-01-24T03:59:03.386Z,1.30
2024-01-24T04:01:31.767Z,1.90
2024-01-24T04:03:59.953Z,1.80
2024-01-24T04:06:28.400Z,1.10
2024-01-24T04:08:56.584Z,1.90
2024-01-24T04:11:24.610Z,1.20
2024-01-24T04:13:57.776Z,3.70
2024-01-24T04:16:25.871Z,1.50
2024-01-24T04:18:54.117Z,1.50
2024-01-24T04:21:22.282Z,2.50
2024-01-24T04:23:50.680Z,1.80
2024-01-24T04:26:22.495Z,2.40
2024-01-24T04:28:50.642Z,1.50
2024-01-24T04:31:18.705Z,2.90
2024-01-24T04:33:46.851Z,2.10
2024-01-24T04:36:15.216Z,5.00
2024-01-24T04:38:44.922Z,2.90
2024-01-24T04:41:13.167Z,1.30
2024-01-24T04:43:41.268Z,1.90
2024-01-24T04:46:16.198Z,1.50
2024-01-24T04:48:45.856Z,2.20
2024-01-24T04:51:14.128Z,1.90
2024-01-24T04:53:42.284Z,1.40
2024-01-24T04:56:10.479Z,2.50
2024-01-24T04:58:38.648Z,1.50
2024-01-24T05:01:06.913Z,2.70
2024-01-24T05:03:35.221Z,2.00
2024-01-24T05:06:09.914Z,1.30
2024-01-24T05:08:39.753Z,4.00
2024-01-24T05:11:07.948Z,3.00
2024-01-24T05:13:36.129Z,2.90
2024-01-24T05:16:04.642Z,1.60
2024-01-24T05:18:32.943Z,1.60
2024-01-24T05:21:03.517Z,2.10
2024-01-24T05:23:31.948Z,3.20
2024-01-24T05:26:00.033Z,1.70
2024-01-24T05:28:28.130Z,4.00
2024-01-24T05:30:56.195Z,3.50
2024-01-24T05:33:24.936Z,2.30
2024-01-24T05:35:53.475Z,2.30
2024-01-24T05:38:21.577Z,2.20
2024-01-24T05:40:49.917Z,3.60
2024-01-24T05:43:18.487Z,6.10
2024-01-24T05:45:51.198Z,9.70
2024-01-24T05:48:19.590Z,9.90
2024-01-24T05:50:47.785Z,15.30
2024-01-24T05:53:15.868Z,7.30
2024-01-24T05:55:44.049Z,17.50
2024-01-24T05:58:12.623Z,6.60
2024-01-24T06:00:40.854Z,3.00
2024-01-24T06:03:09.063Z,3.60
2024-01-24T06:05:37.397Z,4.50
2024-01-24T06:08:06.853Z,2.40
2024-01-24T06:10:35.137Z,3.10
2024-01-24T06:13:03.500Z,4.00
2024-01-24T06:15:31.678Z,2.50
2024-01-24T06:17:59.836Z,2.10
2024-01-24T06:20:28.594Z,2.90
2024-01-24T06:22:56.687Z,2.00
2024-01-24T06:25:24.790Z,1.70
2024-01-24T06:27:53.176Z,1.40
2024-01-24T06:30:23.547Z,1.80
2024-01-24T06:32:53.415Z,2.00
2024-01-24T06:35:22.667Z,2.20
2024-01-24T06:37:52.965Z,6.80
2024-01-24T06:40:21.380Z,3.60
2024-01-24T06:42:50.504Z,3.90
2024-01-24T06:45:18.893Z,2.40
2024-01-24T06:47:47.274Z,2.10
2024-01-24T06:50:15.626Z,2.10
2024-01-24T06:52:44.015Z,4.80
2024-01-24T06:55:12.972Z,4.70
2024-01-24T06:57:41.239Z,4.00
2024-01-24T07:00:11.392Z,5.90
2024-01-24T07:02:40.096Z,6.10
2024-01-24T07:05:08.501Z,8.00
2024-01-24T07:07:38.709Z,7.90
2024-01-24T07:10:12.710Z,5.50
2024-01-24T07:12:46.956Z,6.20
2024-01-24T07:15:17.659Z,6.10
2024-01-24T07:17:46.828Z,7.50
2024-01-24T07:20:17.063Z,4.90
2024-01-24T07:22:45.365Z,7.80
2024-01-24T07:25:13.496Z,10.00
2024-01-24T07:27:41.690Z,10.70
2024-01-24T07:30:10.178Z,7.30
2024-01-24T07:32:41.493Z,10.80
2024-01-24T07:35:12.959Z,9.20
2024-01-24T07:37:41.108Z,5.60
2024-01-24T07:40:19.654Z,10.10
2024-01-24T07:42:49.119Z,4.50
2024-01-24T07:45:19.788Z,6.10
2024-01-24T07:47:48.973Z,7.10
2024-01-24T07:50:17.504Z,6.40
2024-01-24T07:52:45.837Z,4.30
2024-01-24T07:55:17.538Z,3.60
2024-01-24T07:57:46.135Z,5.60
2024-01-24T08:00:17.983Z,10.10
2024-01-24T08:02:47.664Z,10.00
2024-01-24T08:05:20.850Z,4.30
2024-01-24T08:07:49.421Z,4.70
2024-01-24T08:10:19.048Z,4.10
2024-01-24T08:12:47.481Z,3.00
2024-01-24T08:15:15.994Z,2.80
2024-01-24T08:17:44.906Z,3.90
2024-01-24T08:20:13.390Z,5.10
2024-01-24T08:22:41.581Z,4.40
2024-01-24T08:25:09.866Z,6.40
2024-01-24T08:27:38.231Z,8.80
2024-01-24T08:30:07.218Z,10.00
2024-01-24T08:32:35.495Z,14.30
2024-01-24T08:35:05.130Z,7.30
2024-01-24T08:37:33.252Z,5.60
2024-01-24T08:40:01.478Z,7.00
2024-01-24T08:42:30.329Z,7.50
2024-01-24T08:44:58.466Z,8.40
2024-01-24T08:47:26.772Z,6.10
2024-01-24T08:49:57.835Z,4.70
2024-01-24T08:52:26.585Z,7.40
2024-01-24T08:54:54.844Z,7.80
2024-01-24T08:57:23.624Z,6.10
2024-01-24T08:59:53.377Z,10.10
2024-01-24T09:02:21.656Z,5.00
2024-01-24T09:04:52.936Z,5.00
2024-01-24T09:07:21.425Z,2.80
2024-01-24T09:09:52.919Z,3.30
2024-01-24T09:12:21.441Z,3.00
2024-01-24T09:14:50.174Z,2.50
2024-01-24T09:17:19.077Z,3.20
2024-01-24T09:19:49.100Z,2.30
2024-01-24T09:22:18.311Z,4.40
2024-01-24T09:24:46.751Z,5.50
2024-01-24T09:27:18.516Z,4.30
2024-01-24T09:29:46.700Z,2.40
2024-01-24T09:32:15.064Z,9.10
2024-01-24T09:34:44.424Z,4.90
2024-01-24T09:37:13.110Z,4.70
2024-01-24T09:39:41.385Z,2.70
2024-01-24T09:42:21.010Z,1.30
2024-01-24T09:44:52.357Z,1.70
2024-01-24T09:47:23.637Z,2.20
2024-01-24T09:49:52.381Z,2.70
2024-01-24T09:52:26.287Z,3.70
2024-01-24T09:55:01.098Z,4.00
2024-01-24T09:57:29.440Z,2.60
2024-01-24T09:59:58.175Z,4.60
2024-01-24T10:02:27.683Z,2.50
2024-01-24T10:04:59.101Z,6.00
2024-01-24T10:07:29.299Z,6.10
2024-01-24T10:10:07.952Z,4.30
2024-01-24T10:12:36.967Z,4.60
2024-01-24T10:15:05.547Z,4.30
2024-01-24T10:17:33.769Z,4.70
2024-01-24T10:20:02.250Z,3.60
2024-01-24T10:22:30.588Z,4.10
2024-01-24T10:24:59.769Z,3.40
2024-01-24T10:27:29.047Z,6.40
2024-01-24T10:29:58.112Z,6.40
2024-01-24T10:32:26.329Z,2.60
2024-01-24T10:34:54.798Z,5.80
2024-01-24T10:37:23.559Z,10.90
2024-01-24T10:39:54.788Z,3.10
2024-01-24T10:42:29.957Z,2.50
2024-01-24T10:45:01.810Z,1.30
2024-01-24T10:47:31.658Z,2.60
2024-01-24T10:50:05.098Z,4.40
2024-01-24T10:55:12.385Z,2.60
2024-01-24T10:57:44.811Z,1.80
2024-01-24T11:00:17.007Z,3.80
2024-01-24T11:02:45.472Z,7.10
2024-01-24T11:05:20.683Z,2.40
2024-01-24T11:08:04.249Z,2.50
2024-01-24T11:10:37.497Z,5.60
2024-01-24T11:13:06.712Z,2.10
2024-01-24T11:15:36.285Z,2.20
2024-01-24T11:18:24.166Z,2.30
2024-01-24T11:20:55.130Z,3.00
2024-01-24T11:23:45.779Z,5.60
2024-01-24T11:26:47.384Z,4.40
2024-01-24T11:29:15.942Z,1.90
2024-01-24T11:31:44.723Z,2.90
2024-01-24T11:34:14.304Z,3.20
2024-01-24T11:36:52.278Z,3.30
2024-01-24T11:39:41.229Z,5.30
2024-01-24T11:42:25.230Z,3.90
2024-01-24T11:44:54.616Z,7.20
2024-01-24T11:47:24.044Z,5.60
2024-01-24T11:49:53.817Z,4.30
2024-01-24T11:52:22.573Z,7.60
2024-01-24T11:54:54.859Z,7.90
2024-01-24T11:57:23.359Z,9.70
2024-01-24T11:59:51.531Z,13.40
2024-01-24T12:02:19.783Z,12.20
2024-01-24T12:04:51.688Z,12.90
2024-01-24T12:07:20.815Z,10.10
2024-01-24T12:09:49.670Z,10.20
2024-01-24T12:12:19.334Z,8.00
2024-01-24T12:14:48.239Z,8.50
2024-01-24T12:17:16.942Z,9.20
2024-01-24T12:19:46.410Z,14.00
2024-01-24T12:22:16.882Z,12.30
2024-01-24T12:24:45.302Z,14.70
2024-01-24T12:27:27.966Z,13.70
2024-01-24T12:29:56.521Z,18.00
2024-01-24T12:32:25.314Z,16.00
2024-01-24T12:34:57.109Z,16.40
2024-01-24T12:37:25.436Z,21.30
2024-01-24T12:39:57.549Z,15.10
2024-01-24T12:42:25.740Z,19.70
2024-01-24T12:44:55.264Z,14.40
2024-01-24T12:47:23.910Z,23.60
2024-01-24T12:49:52.245Z,23.20
2024-01-24T12:52:20.590Z,19.00
2024-01-24T12:54:48.855Z,19.50
2024-01-24T12:57:18.619Z,18.40
2024-01-24T12:59:47.030Z,18.50
2024-01-24T13:02:15.430Z,12.60
2024-01-24T13:04:45.441Z,14.20
2024-01-24T13:07:14.314Z,14.10
2024-01-24T13:09:46.296Z,12.50
2024-01-24T13:12:22.606Z,10.00
2024-01-24T13:14:50.954Z,14.30
2024-01-24T13:17:20.853Z,11.00
2024-01-24T13:19:49.746Z,11.40
2024-01-24T13:22:18.799Z,17.10
2024-01-24T13:24:48.008Z,15.90
2024-01-24T13:27:19.941Z,11.90
2024-01-24T13:29:48.213Z,11.80
2024-01-24T13:32:16.553Z,11.00
2024-01-24T13:34:45.008Z,12.50
2024-01-24T13:37:15.313Z,11.10
2024-01-24T13:39:44.392Z,10.00
2024-01-24T13:42:12.990Z,13.30
2024-01-24T13:44:41.580Z,19.00
2024-01-24T13:47:09.965Z,13.60
2024-01-24T13:49:42.839Z,14.00
2024-01-24T13:52:11.667Z,15.30
2024-01-24T13:54:39.842Z,15.20
2024-01-24T13:57:08.444Z,11.80
2024-01-24T13:59:36.794Z,12.10
2024-01-24T14:02:05.023Z,19.90
2024-01-24T14:04:33.338Z,16.30
2024-01-24T14:07:02.509Z,17.80
2024-01-24T14:09:30.926Z,12.60
2024-01-24T14:11:59.872Z,11.30
2024-01-24T14:14:29.491Z,10.00
2024-01-24T14:17:00.591Z,10.00
2024-01-24T14:19:29.001Z,13.60
2024-01-24T14:21:57.532Z,11.30
2024-01-24T14:24:25.783Z,13.00
2024-01-24T14:26:54.409Z,34.40
2024-01-24T14:29:24.575Z,42.60
2024-01-24T14:31:52.745Z,11.10
2024-01-24T14:34:21.005Z,14.80
2024-01-24T14:36:52.541Z,12.70
2024-01-24T14:39:24.364Z,14.60
2024-01-24T14:41:52.581Z,11.30
2024-01-24T14:44:20.828Z,12.60
2024-01-24T14:46:48.943Z,27.10
2024-01-24T14:49:17.174Z,16.80
2024-01-24T14:51:45.296Z,9.80
2024-01-24T14:54:13.314Z,18.40
2024-01-24T14:56:41.362Z,18.50
2024-01-24T14:59:09.517Z,17.40
2024-01-24T15:01:37.902Z,14.80
2024-01-24T15:04:06.340Z,16.10
2024-01-24T15:06:34.703Z,11.20
2024-01-24T15:09:02.852Z,7.20
2024-01-24T15:11:31.005Z,10.00
2024-01-24T15:13:59.164Z,7.60
2024-01-24T15:16:29.387Z,8.90
2024-01-24T15:18:58.336Z,7.50
2024-01-24T15:21:27.674Z,9.10
2024-01-24T15:24:00.204Z,8.30
2024-01-24T15:26:28.763Z,10.10
2024-01-24T15:28:56.944Z,13.30
2024-01-24T15:31:25.197Z,11.80
2024-01-24T15:33:54.225Z,9.00
2024-01-24T15:36:22.550Z,15.10
2024-01-24T15:38:52.119Z,15.40
2024-01-24T15:41:20.477Z,10.70
2024-01-24T15:43:48.727Z,12.70
2024-01-24T15:46:16.909Z,13.50
2024-01-24T15:48:45.549Z,12.50
2024-01-24T15:51:17.722Z,17.00
2024-01-24T15:53:46.007Z,13.00
2024-01-24T15:56:14.360Z,11.80
2024-01-24T15:58:42.436Z,16.00
2024-01-24T16:01:10.740Z,14.00
2024-01-24T16:03:39.054Z,14.90
2024-01-24T16:06:07.756Z,17.80
2024-01-24T16:08:36.005Z,15.30
2024-01-24T16:11:04.327Z,13.90
2024-01-24T16:13:32.813Z,12.40
2024-01-24T16:16:03.589Z,14.90
2024-01-24T16:18:32.324Z,15.10
2024-01-24T16:21:05.149Z,14.30
2024-01-24T16:23:33.544Z,15.70
2024-01-24T16:26:01.920Z,16.60
2024-01-24T16:28:30.014Z,10.10
2024-01-24T16:30:58.236Z,14.50
2024-01-24T16:33:27.432Z,11.10
2024-01-24T16:35:55.604Z,11.00
2024-01-24T16:38:23.656Z,15.00
2024-01-24T16:40:52.554Z,11.40
2024-01-24T16:43:21.008Z,10.80
2024-01-24T16:45:50.864Z,18.20
2024-01-24T16:48:19.513Z,13.80
2024-01-24T16:50:48.017Z,17.50
2024-01-24T16:53:16.655Z,14.70
2024-01-24T16:55:44.760Z,17.40
2024-01-24T16:58:14.396Z,14.50
2024-01-24T17:00:42.782Z,16.30
2024-01-24T17:03:11.016Z,19.90
2024-01-24T17:05:39.188Z,17.70
2024-01-24T17:08:07.995Z,12.80
2024-01-24T17:10:36.103Z,13.60
2024-01-24T17:13:04.401Z,12.80
2024-01-24T17:15:32.603Z,10.10
2024-01-24T17:18:05.237Z,9.60
2024-01-24T17:20:33.918Z,13.10
2024-01-24T17:23:02.091Z,16.30
2024-01-24T17:25:30.672Z,17.50
2024-01-24T17:27:59.060Z,13.90
2024-01-24T17:30:27.329Z,13.20
2024-01-24T17:32:55.696Z,13.80
2024-01-24T17:35:23.761Z,20.40
2024-01-24T17:37:51.975Z,15.10
2024-01-24T17:40:20.187Z,12.50
2024-01-24T17:42:48.351Z,14.70
2024-01-24T17:45:16.693Z,20.10
2024-01-24T17:47:45.201Z,16.00
2024-01-24T17:50:13.467Z,18.40
2024-01-24T17:52:43.776Z,18.00
2024-01-24T17:55:11.940Z,14.50
2024-01-24T17:57:40.299Z,17.10
2024-01-24T18:00:09.051Z,15.10
2024-01-24T18:02:37.306Z,20.60
2024-01-24T18:05:06.965Z,18.40
2024-01-24T18:07:35.317Z,23.40
2024-01-24T18:10:03.771Z,10.40
2024-01-24T18:12:32.594Z,13.80
2024-01-24T18:15:00.668Z,10.60
2024-01-24T18:17:28.903Z,11.40
2024-01-24T18:19:57.118Z,11.10
2024-01-24T18:22:25.346Z,12.50
2024-01-24T18:24:53.522Z,9.30
2024-01-24T18:27:21.551Z,17.40
2024-01-24T18:29:53.576Z,13.20
2024-01-24T18:34:42.512Z,11.10
2024-01-24T18:37:10.944Z,12.90
2024-01-24T18:39:39.020Z,11.10
2024-01-24T18:42:08.988Z,12.90
2024-01-24T18:44:37.653Z,11.30
2024-01-24T18:47:06.992Z,12.30
2024-01-24T18:49:35.278Z,15.00
2024-01-24T18:52:03.820Z,10.50
2024-01-24T18:54:32.342Z,16.90
2024-01-24T18:57:00.475Z,11.60
2024-01-24T18:59:29.144Z,17.50
2024-01-24T19:01:57.375Z,14.30
2024-01-24T19:04:26.331Z,11.90
2024-01-24T19:06:56.499Z,12.20
2024-01-24T19:09:25.072Z,13.70
2024-01-24T19:11:55.222Z,12.70
2024-01-24T19:14:23.559Z,9.60
2024-01-24T19:16:51.839Z,9.80
2024-01-24T19:19:21.775Z,14.20
2024-01-24T19:21:50.245Z,10.00
2024-01-24T19:24:19.427Z,9.10
2024-01-24T19:26:47.505Z,10.20
2024-01-24T19:29:15.578Z,11.90
2024-01-24T19:31:43.738Z,12.30
2024-01-24T19:34:12.277Z,11.30
2024-01-24T19:36:40.878Z,13.30
2024-01-24T19:39:10.259Z,9.70
2024-01-24T19:41:39.337Z,12.20
2024-01-24T19:44:07.854Z,13.00
2024-01-24T19:46:36.073Z,14.50
2024-01-24T19:49:04.500Z,13.40
2024-01-24T19:51:33.004Z,10.90
2024-01-24T19:54:02.298Z,10.00
2024-01-24T19:56:30.633Z,11.20
2024-01-24T19:59:00.595Z,13.50
2024-01-24T20:01:29.035Z,12.40
2024-01-24T20:03:57.242Z,11.00
2024-01-24T20:06:29.756Z,11.30
2024-01-24T20:09:02.759Z,16.50
2024-01-24T20:11:31.126Z,13.40
2024-01-24T20:13:59.389Z,11.30
2024-01-24T20:16:27.623Z,8.30
2024-01-24T20:18:56.978Z,9.80
2024-01-24T20:21:25.578Z,12.60
2024-01-24T20:23:53.832Z,10.00
2024-01-24T20:26:23.601Z,10.80
2024-01-24T20:28:52.103Z,13.80
2024-01-24T20:31:20.262Z,10.10
2024-01-24T20:33:48.604Z,9.40
2024-01-24T20:36:16.892Z,7.70
2024-01-24T20:38:45.992Z,9.50
2024-01-24T20:41:14.163Z,9.40
2024-01-24T20:43:43.074Z,14.40
2024-01-24T20:46:12.379Z,9.30
2024-01-24T20:48:41.759Z,14.70
2024-01-24T20:51:10.012Z,15.00
2024-01-24T20:53:38.183Z,9.30
2024-01-24T20:56:06.676Z,12.30
2024-01-24T20:58:35.383Z,9.80
2024-01-24T21:01:04.615Z,10.40
2024-01-24T21:03:34.363Z,13.60
2024-01-24T21:06:03.057Z,12.50
2024-01-24T21:08:31.538Z,19.30
2024-01-24T21:11:03.532Z,9.80
2024-01-24T21:13:32.861Z,12.40
2024-01-24T21:16:02.419Z,8.80
2024-01-24T21:18:30.745Z,13.80
2024-01-24T21:20:59.194Z,12.60
2024-01-24T21:23:27.548Z,9.50
2024-01-24T21:25:55.787Z,11.80
2024-01-24T21:28:23.963Z,10.90
2024-01-24T21:30:52.133Z,11.10
2024-01-24T21:33:20.303Z,11.70
2024-01-24T21:35:48.499Z,12.20
2024-01-24T21:38:18.461Z,11.00
2024-01-24T21:40:46.753Z,9.20
2024-01-24T21:43:15.078Z,11.20
2024-01-24T21:45:43.258Z,9.50
2024-01-24T21:48:11.911Z,11.00
2024-01-24T21:50:40.059Z,9.60
2024-01-24T21:53:08.734Z,11.70
2024-01-24T21:55:36.853Z,11.30
2024-01-24T21:58:05.670Z,12.90
2024-01-24T22:00:33.998Z,9.20
2024-01-24T22:03:02.287Z,11.40
2024-01-24T22:05:30.546Z,9.60
2024-01-24T22:07:58.834Z,11.10
2024-01-24T22:10:27.095Z,10.30
2024-01-24T22:12:56.174Z,9.20
2024-01-24T22:15:24.583Z,12.50
2024-01-24T22:17:53.230Z,13.30
2024-01-24T22:20:21.459Z,8.90
2024-01-24T22:22:49.537Z,9.10
2024-01-24T22:25:18.482Z,6.90
2024-01-24T22:27:46.980Z,10.50
2024-01-24T22:30:17.708Z,12.40
2024-01-24T22:32:45.899Z,9.00
2024-01-24T22:35:14.576Z,9.90
2024-01-24T22:37:43.048Z,9.30
2024-01-24T22:40:11.439Z,10.30
2024-01-24T22:42:39.694Z,8.90
2024-01-24T22:45:08.739Z,8.50
2024-01-24T22:47:37.038Z,7.90
2024-01-24T22:50:06.091Z,9.80
2024-01-24T22:52:34.392Z,11.00
2024-01-24T22:55:03.194Z,6.00
2024-01-24T22:57:31.367Z,11.00
2024-01-24T23:00:00.257Z,10.00
2024-01-24T23:02:28.972Z,8.50
2024-01-24T23:04:57.215Z,8.00
2024-01-24T23:07:25.531Z,12.10
2024-01-24T23:09:53.897Z,9.90
2024-01-24T23:12:22.110Z,9.20
2024-01-24T23:14:50.207Z,3.90
2024-01-24T23:17:19.489Z,8.00
2024-01-24T23:19:47.796Z,7.40
2024-01-24T23:22:16.118Z,7.80
2024-01-24T23:24:44.293Z,13.50
2024-01-24T23:27:12.503Z,8.50
2024-01-24T23:29:40.652Z,11.70
2024-01-24T23:32:09.282Z,7.70
2024-01-24T23:34:37.957Z,9.10
2024-01-24T23:37:06.414Z,10.10
2024-01-24T23:39:34.624Z,11.60
2024-01-24T23:42:02.770Z,8.10
2024-01-24T23:44:30.998Z,6.90
2024-01-24T23:46:59.079Z,10.50
2024-01-24T23:49:27.423Z,8.90
2024-01-24T23:51:55.918Z,8.40
2024-01-24T23:54:24.302Z,10.60
2024-01-24T23:56:52.305Z,12.00
2024-01-24T23:59:20.379Z,7.70
